Terminal Aerodrome Forecast
Issued by NWS

Home | Current Version | Previous Version | Text Only | Print | Product List | Glossary Off
Versions: 1 2 3 4 5 6 7 8 9 10 11 12 13 14 15 16 17 18 19 20

000
FTUS43 KABR 201031 AAA
TAFATY
TAF AMD
KATY 201031Z 2011/2106 31012KT 2SM BR OVC006
     FM201200 32011KT 4SM BR OVC007
     FM201500 32013KT P6SM BKN008
     FM201900 32013G21KT P6SM BKN030
     FM202300 33011KT P6SM BKN040
     FM210000 34009KT P6SM SCT050=

USA.gov is the U.S. government's official web portal to all federal, state and local government web resources and services.